KCHK/CHK METAR and TAF weather

Enter ICAO airport designator
Station Type Date Time Source
KCHK METAR 2018/07/21 03:50 UTC NOAA

KCHK 210350Z AUTO 16004KT 10SM CLR 32/13 A2984 RMK AO2 T03200131


Station Type Date Time Source
KCHK Decoded METAR 2018/07/21 03:50 UTC NOAA

Chickasha, Chickasha Municipal Airport, OK, United States (KCHK) 35-05-46N 097-57-58W
Jul 20, 2018 - 11:50 PM EDT / 2018.07.21 0350 UTC
Wind: from the SSE (160 degrees) at 5 MPH (4 KT):0
Visibility: 10 mile(s):0
Sky conditions: clear
Temperature: 89.6 F (32.0 C)
Dew Point: 55.6 F (13.1 C)
Relative Humidity: 31%
Pressure (altimeter): 29.84 in. Hg (1010 hPa)
ob: KCHK 210350Z AUTO 16004KT 10SM CLR 32/13 A2984 RMK AO2 T03200131
cycle: 4

Station Type Date Time Source
KCHK TAF UTC NOAA

Error!


Example: see airport list